sensor_id;sensor_type;location;lat;lon;timestamp;temperature;humidity
38380;DHT22;38377;47.418;18.882;2022-07-17T00:01:04;18.30;67.80
38380;DHT22;38377;47.418;18.882;2022-07-17T00:03:30;18.30;68.20
38380;DHT22;38377;47.418;18.882;2022-07-17T00:05:55;18.30;68.30
38380;DHT22;38377;47.418;18.882;2022-07-17T00:08:21;18.20;68.40
38380;DHT22;38377;47.418;18.882;2022-07-17T00:10:47;18.20;68.50
38380;DHT22;38377;47.418;18.882;2022-07-17T00:13:13;18.10;69.10
38380;DHT22;38377;47.418;18.882;2022-07-17T00:15:39;18.10;68.70
38380;DHT22;38377;47.418;18.882;2022-07-17T00:18:05;18.10;69.30
38380;DHT22;38377;47.418;18.882;2022-07-17T00:20:32;18.10;69.00
38380;DHT22;38377;47.418;18.882;2022-07-17T00:22:58;18.00;69.10
38380;DHT22;38377;47.418;18.882;2022-07-17T00:25:24;18.00;69.50
38380;DHT22;38377;47.418;18.882;2022-07-17T00:27:50;18.00;69.60
38380;DHT22;38377;47.418;18.882;2022-07-17T00:30:16;17.90;69.70
38380;DHT22;38377;47.418;18.882;2022-07-17T00:32:42;17.90;69.90
38380;DHT22;38377;47.418;18.882;2022-07-17T00:35:09;17.90;70.20
38380;DHT22;38377;47.418;18.882;2022-07-17T00:37:42;17.80;70.50
38380;DHT22;38377;47.418;18.882;2022-07-17T00:40:10;17.70;70.70
38380;DHT22;38377;47.418;18.882;2022-07-17T00:42:39;17.60;70.90
38380;DHT22;38377;47.418;18.882;2022-07-17T00:45:07;17.60;70.90
38380;DHT22;38377;47.418;18.882;2022-07-17T00:47:32;17.60;71.10
38380;DHT22;38377;47.418;18.882;2022-07-17T00:49:58;17.60;71.10
38380;DHT22;38377;47.418;18.882;2022-07-17T00:52:24;17.60;71.20
38380;DHT22;38377;47.418;18.882;2022-07-17T00:54:50;17.60;71.30
38380;DHT22;38377;47.418;18.882;2022-07-17T00:57:17;17.60;71.50
38380;DHT22;38377;47.418;18.882;2022-07-17T00:59:44;17.60;71.40
38380;DHT22;38377;47.418;18.882;2022-07-17T01:02:11;17.60;71.60
38380;DHT22;38377;47.418;18.882;2022-07-17T01:04:39;17.50;71.60
38380;DHT22;38377;47.418;18.882;2022-07-17T01:07:06;17.50;71.80
38380;DHT22;38377;47.418;18.882;2022-07-17T01:09:33;17.50;71.70
38380;DHT22;38377;47.418;18.882;2022-07-17T01:11:59;17.50;71.70
38380;DHT22;38377;47.418;18.882;2022-07-17T01:14:26;17.50;71.90
38380;DHT22;38377;47.418;18.882;2022-07-17T01:16:53;17.40;72.00
38380;DHT22;38377;47.418;18.882;2022-07-17T01:19:20;17.40;72.30
38380;DHT22;38377;47.418;18.882;2022-07-17T01:21:48;17.40;72.80
38380;DHT22;38377;47.418;18.882;2022-07-17T01:24:14;17.40;72.80
38380;DHT22;38377;47.418;18.882;2022-07-17T01:26:45;17.30;72.60
38380;DHT22;38377;47.418;18.882;2022-07-17T01:29:12;17.30;72.80
38380;DHT22;38377;47.418;18.882;2022-07-17T01:31:39;17.20;72.80
38380;DHT22;38377;47.418;18.882;2022-07-17T01:34:06;17.20;73.00
38380;DHT22;38377;47.418;18.882;2022-07-17T01:36:33;17.20;73.10
38380;DHT22;38377;47.418;18.882;2022-07-17T01:38:58;17.10;73.30
38380;DHT22;38377;47.418;18.882;2022-07-17T01:41:24;17.10;73.50
38380;DHT22;38377;47.418;18.882;2022-07-17T01:43:50;17.10;72.70
38380;DHT22;38377;47.418;18.882;2022-07-17T01:46:15;17.10;72.10
38380;DHT22;38377;47.418;18.882;2022-07-17T01:48:41;17.20;72.00
38380;DHT22;38377;47.418;18.882;2022-07-17T01:51:07;17.20;71.80
38380;DHT22;38377;47.418;18.882;2022-07-17T01:53:33;17.10;71.90
38380;DHT22;38377;47.418;18.882;2022-07-17T01:55:59;17.10;72.10
38380;DHT22;38377;47.418;18.882;2022-07-17T01:58:25;17.00;72.30
38380;DHT22;38377;47.418;18.882;2022-07-17T02:00:51;16.90;73.10
38380;DHT22;38377;47.418;18.882;2022-07-17T02:03:17;16.90;73.30
38380;DHT22;38377;47.418;18.882;2022-07-17T02:05:43;16.70;73.00
38380;DHT22;38377;47.418;18.882;2022-07-17T02:08:09;16.70;73.40
38380;DHT22;38377;47.418;18.882;2022-07-17T02:10:35;16.60;73.80
38380;DHT22;38377;47.418;18.882;2022-07-17T02:13:01;16.50;74.60
38380;DHT22;38377;47.418;18.882;2022-07-17T02:15:27;16.40;74.90
38380;DHT22;38377;47.418;18.882;2022-07-17T02:17:52;16.30;75.20
38380;DHT22;38377;47.418;18.882;2022-07-17T02:20:19;16.30;74.70
38380;DHT22;38377;47.418;18.882;2022-07-17T02:22:44;16.20;75.10
38380;DHT22;38377;47.418;18.882;2022-07-17T02:25:11;16.10;75.20
38380;DHT22;38377;47.418;18.882;2022-07-17T02:27:38;16.10;74.90
38380;DHT22;38377;47.418;18.882;2022-07-17T02:30:10;16.10;74.40
38380;DHT22;38377;47.418;18.882;2022-07-17T02:32:36;16.10;74.70
38380;DHT22;38377;47.418;18.882;2022-07-17T02:35:02;16.00;74.90
38380;DHT22;38377;47.418;18.882;2022-07-17T02:37:28;16.00;75.00
38380;DHT22;38377;47.418;18.882;2022-07-17T02:39:54;15.90;75.30
38380;DHT22;38377;47.418;18.882;2022-07-17T02:42:23;15.90;75.10
38380;DHT22;38377;47.418;18.882;2022-07-17T02:44:50;15.80;75.30
38380;DHT22;38377;47.418;18.882;2022-07-17T02:47:29;15.80;75.50
38380;DHT22;38377;47.418;18.882;2022-07-17T02:49:55;15.80;75.50
38380;DHT22;38377;47.418;18.882;2022-07-17T02:52:22;15.80;75.80
38380;DHT22;38377;47.418;18.882;2022-07-17T02:54:48;15.70;75.80
38380;DHT22;38377;47.418;18.882;2022-07-17T02:57:14;15.70;76.10
38380;DHT22;38377;47.418;18.882;2022-07-17T02:59:40;15.70;76.00
38380;DHT22;38377;47.418;18.882;2022-07-17T03:02:06;15.70;76.00
38380;DHT22;38377;47.418;18.882;2022-07-17T03:04:32;15.70;76.80
38380;DHT22;38377;47.418;18.882;2022-07-17T03:06:57;15.60;76.50
38380;DHT22;38377;47.418;18.882;2022-07-17T03:09:23;15.50;76.70
38380;DHT22;38377;47.418;18.882;2022-07-17T03:11:49;15.50;77.20
38380;DHT22;38377;47.418;18.882;2022-07-17T03:14:15;15.50;77.30
38380;DHT22;38377;47.418;18.882;2022-07-17T03:16:42;15.40;77.50
38380;DHT22;38377;47.418;18.882;2022-07-17T03:19:08;15.40;77.60
38380;DHT22;38377;47.418;18.882;2022-07-17T03:21:34;15.40;77.60
38380;DHT22;38377;47.418;18.882;2022-07-17T03:24:00;15.40;78.40
38380;DHT22;38377;47.418;18.882;2022-07-17T03:26:26;15.40;77.60
38380;DHT22;38377;47.418;18.882;2022-07-17T03:28:51;15.40;77.60
38380;DHT22;38377;47.418;18.882;2022-07-17T03:31:17;15.40;77.80
38380;DHT22;38377;47.418;18.882;2022-07-17T03:33:43;15.30;78.10
38380;DHT22;38377;47.418;18.882;2022-07-17T03:36:09;15.30;78.20
38380;DHT22;38377;47.418;18.882;2022-07-17T03:38:34;15.40;78.20
38380;DHT22;38377;47.418;18.882;2022-07-17T03:41:00;15.30;78.30
38380;DHT22;38377;47.418;18.882;2022-07-17T03:43:26;15.30;78.90
38380;DHT22;38377;47.418;18.882;2022-07-17T03:45:51;15.30;79.00
38380;DHT22;38377;47.418;18.882;2022-07-17T03:48:17;15.30;79.10
38380;DHT22;38377;47.418;18.882;2022-07-17T03:50:43;15.30;79.20
38380;DHT22;38377;47.418;18.882;2022-07-17T03:53:09;15.30;78.80
38380;DHT22;38377;47.418;18.882;2022-07-17T03:55:35;15.30;79.60
38380;DHT22;38377;47.418;18.882;2022-07-17T03:58:01;15.20;79.90
38380;DHT22;38377;47.418;18.882;2022-07-17T04:00:27;15.10;81.50
38380;DHT22;38377;47.418;18.882;2022-07-17T04:02:53;15.00;82.30
38380;DHT22;38377;47.418;18.882;2022-07-17T04:05:18;14.90;82.90
38380;DHT22;38377;47.418;18.882;2022-07-17T04:07:44;14.90;83.10
38380;DHT22;38377;47.418;18.882;2022-07-17T04:10:11;14.90;83.80
38380;DHT22;38377;47.418;18.882;2022-07-17T04:12:38;15.00;82.30
38380;DHT22;38377;47.418;18.882;2022-07-17T04:15:05;15.30;81.50
38380;DHT22;38377;47.418;18.882;2022-07-17T04:17:31;15.50;80.60
38380;DHT22;38377;47.418;18.882;2022-07-17T04:19:57;15.80;80.50
38380;DHT22;38377;47.418;18.882;2022-07-17T04:22:23;16.00;79.80
38380;DHT22;38377;47.418;18.882;2022-07-17T04:24:51;16.10;78.60
38380;DHT22;38377;47.418;18.882;2022-07-17T04:27:17;16.30;78.30
38380;DHT22;38377;47.418;18.882;2022-07-17T04:29:42;16.50;77.10
38380;DHT22;38377;47.418;18.882;2022-07-17T04:32:08;16.80;76.50
38380;DHT22;38377;47.418;18.882;2022-07-17T04:34:34;17.20;76.60
38380;DHT22;38377;47.418;18.882;2022-07-17T04:37:01;17.50;75.30
38380;DHT22;38377;47.418;18.882;2022-07-17T04:39:27;17.80;73.60
38380;DHT22;38377;47.418;18.882;2022-07-17T04:41:53;18.10;73.10
38380;DHT22;38377;47.418;18.882;2022-07-17T04:44:19;18.00;72.40
38380;DHT22;38377;47.418;18.882;2022-07-17T04:46:45;18.10;73.20
38380;DHT22;38377;47.418;18.882;2022-07-17T04:49:11;18.10;73.60
38380;DHT22;38377;47.418;18.882;2022-07-17T04:51:37;18.20;72.20
38380;DHT22;38377;47.418;18.882;2022-07-17T04:54:03;18.40;71.50
38380;DHT22;38377;47.418;18.882;2022-07-17T04:56:28;18.80;70.10
38380;DHT22;38377;47.418;18.882;2022-07-17T04:58:54;19.30;70.10
38380;DHT22;38377;47.418;18.882;2022-07-17T05:01:20;19.90;67.00
38380;DHT22;38377;47.418;18.882;2022-07-17T05:03:46;20.40;65.60
38380;DHT22;38377;47.418;18.882;2022-07-17T05:06:11;20.50;65.30
38380;DHT22;38377;47.418;18.882;2022-07-17T05:08:37;20.10;65.90
38380;DHT22;38377;47.418;18.882;2022-07-17T05:11:03;19.90;67.10
38380;DHT22;38377;47.418;18.882;2022-07-17T05:13:30;19.40;68.00
38380;DHT22;38377;47.418;18.882;2022-07-17T05:15:55;19.10;69.30
38380;DHT22;38377;47.418;18.882;2022-07-17T05:18:22;18.60;70.20
38380;DHT22;38377;47.418;18.882;2022-07-17T05:20:48;18.40;70.40
38380;DHT22;38377;47.418;18.882;2022-07-17T05:23:13;18.70;70.30
38380;DHT22;38377;47.418;18.882;2022-07-17T05:25:39;19.40;68.80
38380;DHT22;38377;47.418;18.882;2022-07-17T05:28:05;20.10;67.00
38380;DHT22;38377;47.418;18.882;2022-07-17T05:30:31;20.70;66.20
38380;DHT22;38377;47.418;18.882;2022-07-17T05:32:56;21.30;64.10
38380;DHT22;38377;47.418;18.882;2022-07-17T05:35:22;21.60;63.00
38380;DHT22;38377;47.418;18.882;2022-07-17T05:37:48;21.90;62.20
38380;DHT22;38377;47.418;18.882;2022-07-17T05:40:14;21.70;63.10
38380;DHT22;38377;47.418;18.882;2022-07-17T05:42:40;21.90;62.60
38380;DHT22;38377;47.418;18.882;2022-07-17T05:45:06;21.80;62.90
38380;DHT22;38377;47.418;18.882;2022-07-17T05:47:32;21.70;62.80
38380;DHT22;38377;47.418;18.882;2022-07-17T05:49:57;21.60;62.80
38380;DHT22;38377;47.418;18.882;2022-07-17T05:52:23;21.00;64.50
38380;DHT22;38377;47.418;18.882;2022-07-17T05:54:49;20.70;65.10
38380;DHT22;38377;47.418;18.882;2022-07-17T05:57:15;20.20;66.60
38380;DHT22;38377;47.418;18.882;2022-07-17T05:59:41;19.90;67.10
38380;DHT22;38377;47.418;18.882;2022-07-17T06:02:06;19.50;67.30
38380;DHT22;38377;47.418;18.882;2022-07-17T06:04:32;19.30;68.50
38380;DHT22;38377;47.418;18.882;2022-07-17T06:06:58;19.00;69.10
38380;DHT22;38377;47.418;18.882;2022-07-17T06:09:24;18.90;71.10
38380;DHT22;38377;47.418;18.882;2022-07-17T06:11:49;18.80;69.80
38380;DHT22;38377;47.418;18.882;2022-07-17T06:14:15;18.70;70.00
38380;DHT22;38377;47.418;18.882;2022-07-17T06:16:41;18.70;70.20
38380;DHT22;38377;47.418;18.882;2022-07-17T06:19:07;18.60;70.50
38380;DHT22;38377;47.418;18.882;2022-07-17T06:21:33;18.60;70.90
38380;DHT22;38377;47.418;18.882;2022-07-17T06:23:58;18.70;70.70
38380;DHT22;38377;47.418;18.882;2022-07-17T06:26:24;18.70;70.80
38380;DHT22;38377;47.418;18.882;2022-07-17T06:28:50;18.80;70.40
38380;DHT22;38377;47.418;18.882;2022-07-17T06:31:17;18.80;70.60
38380;DHT22;38377;47.418;18.882;2022-07-17T06:33:43;18.80;70.00
38380;DHT22;38377;47.418;18.882;2022-07-17T06:36:08;18.90;70.30
38380;DHT22;38377;47.418;18.882;2022-07-17T06:38:34;19.10;70.40
38380;DHT22;38377;47.418;18.882;2022-07-17T06:41:01;19.20;66.50
38380;DHT22;38377;47.418;18.882;2022-07-17T06:43:27;19.30;67.80
38380;DHT22;38377;47.418;18.882;2022-07-17T06:45:53;19.30;65.50
38380;DHT22;38377;47.418;18.882;2022-07-17T06:48:20;19.30;66.60
38380;DHT22;38377;47.418;18.882;2022-07-17T06:50:45;19.20;66.30
38380;DHT22;38377;47.418;18.882;2022-07-17T06:53:11;19.20;65.50
38380;DHT22;38377;47.418;18.882;2022-07-17T06:55:37;19.20;64.40
38380;DHT22;38377;47.418;18.882;2022-07-17T06:58:03;19.40;66.00
38380;DHT22;38377;47.418;18.882;2022-07-17T07:00:28;19.40;64.40
38380;DHT22;38377;47.418;18.882;2022-07-17T07:02:54;19.50;64.50
38380;DHT22;38377;47.418;18.882;2022-07-17T07:05:20;19.50;66.00
38380;DHT22;38377;47.418;18.882;2022-07-17T07:07:46;19.50;61.90
38380;DHT22;38377;47.418;18.882;2022-07-17T07:10:12;19.60;63.50
38380;DHT22;38377;47.418;18.882;2022-07-17T07:12:38;19.90;62.00
38380;DHT22;38377;47.418;18.882;2022-07-17T07:15:07;19.90;62.00
38380;DHT22;38377;47.418;18.882;2022-07-17T07:17:34;19.90;61.20
38380;DHT22;38377;47.418;18.882;2022-07-17T07:20:04;20.00;61.20
38380;DHT22;38377;47.418;18.882;2022-07-17T07:22:31;20.10;59.40
38380;DHT22;38377;47.418;18.882;2022-07-17T07:24:56;20.30;58.80
38380;DHT22;38377;47.418;18.882;2022-07-17T07:27:22;20.60;58.30
38380;DHT22;38377;47.418;18.882;2022-07-17T07:29:48;20.90;57.80
38380;DHT22;38377;47.418;18.882;2022-07-17T07:32:13;21.10;55.90
38380;DHT22;38377;47.418;18.882;2022-07-17T07:34:39;21.10;56.40
38380;DHT22;38377;47.418;18.882;2022-07-17T07:37:05;21.10;53.40
38380;DHT22;38377;47.418;18.882;2022-07-17T07:39:31;21.20;55.10
38380;DHT22;38377;47.418;18.882;2022-07-17T07:41:56;21.30;54.50
38380;DHT22;38377;47.418;18.882;2022-07-17T07:44:22;21.50;54.80
38380;DHT22;38377;47.418;18.882;2022-07-17T07:46:48;21.60;53.60
38380;DHT22;38377;47.418;18.882;2022-07-17T07:49:14;21.80;52.90
38380;DHT22;38377;47.418;18.882;2022-07-17T07:51:41;21.90;53.00
38380;DHT22;38377;47.418;18.882;2022-07-17T07:54:07;22.00;53.00
38380;DHT22;38377;47.418;18.882;2022-07-17T07:56:34;21.90;53.20
38380;DHT22;38377;47.418;18.882;2022-07-17T07:59:00;21.90;53.20
38380;DHT22;38377;47.418;18.882;2022-07-17T08:01:26;21.90;54.20
38380;DHT22;38377;47.418;18.882;2022-07-17T08:03:52;21.90;55.00
38380;DHT22;38377;47.418;18.882;2022-07-17T08:06:17;21.90;54.40
38380;DHT22;38377;47.418;18.882;2022-07-17T08:08:43;21.90;55.40
38380;DHT22;38377;47.418;18.882;2022-07-17T08:11:09;22.20;55.20
38380;DHT22;38377;47.418;18.882;2022-07-17T08:13:35;22.40;55.40
38380;DHT22;38377;47.418;18.882;2022-07-17T08:16:01;22.30;55.80
38380;DHT22;38377;47.418;18.882;2022-07-17T08:18:27;22.40;55.90
38380;DHT22;38377;47.418;18.882;2022-07-17T08:20:55;22.70;54.60
38380;DHT22;38377;47.418;18.882;2022-07-17T08:23:21;22.80;53.50
38380;DHT22;38377;47.418;18.882;2022-07-17T08:25:47;22.90;53.90
38380;DHT22;38377;47.418;18.882;2022-07-17T08:28:13;22.90;52.70
38380;DHT22;38377;47.418;18.882;2022-07-17T08:30:39;23.00;51.90
38380;DHT22;38377;47.418;18.882;2022-07-17T08:33:07;23.30;51.70
38380;DHT22;38377;47.418;18.882;2022-07-17T08:35:34;23.30;51.80
38380;DHT22;38377;47.418;18.882;2022-07-17T08:38:00;23.30;51.60
38380;DHT22;38377;47.418;18.882;2022-07-17T08:40:28;23.10;51.90
38380;DHT22;38377;47.418;18.882;2022-07-17T08:42:56;23.40;53.20
38380;DHT22;38377;47.418;18.882;2022-07-17T08:45:24;23.60;52.80
38380;DHT22;38377;47.418;18.882;2022-07-17T08:47:54;23.70;53.00
38380;DHT22;38377;47.418;18.882;2022-07-17T08:50:24;23.50;51.20
38380;DHT22;38377;47.418;18.882;2022-07-17T08:52:50;23.50;52.30
38380;DHT22;38377;47.418;18.882;2022-07-17T08:55:16;23.40;51.50
38380;DHT22;38377;47.418;18.882;2022-07-17T08:57:43;23.50;52.20
38380;DHT22;38377;47.418;18.882;2022-07-17T09:00:11;23.60;52.20
38380;DHT22;38377;47.418;18.882;2022-07-17T09:02:39;23.70;51.50
38380;DHT22;38377;47.418;18.882;2022-07-17T09:05:06;23.90;51.90
38380;DHT22;38377;47.418;18.882;2022-07-17T09:07:32;23.70;51.20
38380;DHT22;38377;47.418;18.882;2022-07-17T09:09:58;23.80;52.00
38380;DHT22;38377;47.418;18.882;2022-07-17T09:12:29;23.80;50.90
38380;DHT22;38377;47.418;18.882;2022-07-17T09:14:55;24.10;50.90
38380;DHT22;38377;47.418;18.882;2022-07-17T09:17:21;24.20;50.80
38380;DHT22;38377;47.418;18.882;2022-07-17T09:19:48;24.40;51.10
38380;DHT22;38377;47.418;18.882;2022-07-17T09:22:20;24.10;50.20
38380;DHT22;38377;47.418;18.882;2022-07-17T09:24:55;24.40;50.60
38380;DHT22;38377;47.418;18.882;2022-07-17T09:32:22;24.30;48.10
38380;DHT22;38377;47.418;18.882;2022-07-17T09:34:49;24.40;47.90
38380;DHT22;38377;47.418;18.882;2022-07-17T09:37:16;24.30;47.70
38380;DHT22;38377;47.418;18.882;2022-07-17T09:39:42;24.40;47.80
38380;DHT22;38377;47.418;18.882;2022-07-17T09:42:09;24.40;47.90
38380;DHT22;38377;47.418;18.882;2022-07-17T09:44:35;24.50;47.80
38380;DHT22;38377;47.418;18.882;2022-07-17T09:47:03;24.70;47.10
38380;DHT22;38377;47.418;18.882;2022-07-17T09:49:29;24.40;48.00
38380;DHT22;38377;47.418;18.882;2022-07-17T09:51:55;24.60;48.40
38380;DHT22;38377;47.418;18.882;2022-07-17T09:54:23;25.10;47.60
38380;DHT22;38377;47.418;18.882;2022-07-17T09:56:57;24.90;45.90
38380;DHT22;38377;47.418;18.882;2022-07-17T09:59:24;24.80;46.70
38380;DHT22;38377;47.418;18.882;2022-07-17T10:01:51;25.20;47.50
38380;DHT22;38377;47.418;18.882;2022-07-17T10:04:18;25.10;46.40
38380;DHT22;38377;47.418;18.882;2022-07-17T10:06:44;25.00;46.90
38380;DHT22;38377;47.418;18.882;2022-07-17T10:09:10;24.90;45.30
38380;DHT22;38377;47.418;18.882;2022-07-17T10:11:40;25.00;47.60
38380;DHT22;38377;47.418;18.882;2022-07-17T10:14:11;25.10;45.50
38380;DHT22;38377;47.418;18.882;2022-07-17T10:16:37;25.00;45.60
38380;DHT22;38377;47.418;18.882;2022-07-17T10:19:16;24.90;46.80
38380;DHT22;38377;47.418;18.882;2022-07-17T10:21:59;25.10;47.80
38380;DHT22;38377;47.418;18.882;2022-07-17T10:24:29;25.30;46.40
38380;DHT22;38377;47.418;18.882;2022-07-17T10:26:55;25.40;47.70
38380;DHT22;38377;47.418;18.882;2022-07-17T10:29:35;25.30;46.80
38380;DHT22;38377;47.418;18.882;2022-07-17T10:32:08;25.10;46.30
38380;DHT22;38377;47.418;18.882;2022-07-17T10:37:38;25.20;47.60
38380;DHT22;38377;47.418;18.882;2022-07-17T10:50:38;25.70;46.20
38380;DHT22;38377;47.418;18.882;2022-07-17T10:53:06;25.70;43.90
38380;DHT22;38377;47.418;18.882;2022-07-17T10:55:32;25.70;45.30
38380;DHT22;38377;47.418;18.882;2022-07-17T10:57:58;25.70;46.00
38380;DHT22;38377;47.418;18.882;2022-07-17T11:00:25;26.00;45.70
38380;DHT22;38377;47.418;18.882;2022-07-17T11:02:51;26.00;45.30
38380;DHT22;38377;47.418;18.882;2022-07-17T11:05:17;26.10;46.20
38380;DHT22;38377;47.418;18.882;2022-07-17T11:10:16;26.10;45.60
38380;DHT22;38377;47.418;18.882;2022-07-17T11:12:41;26.00;44.40
38380;DHT22;38377;47.418;18.882;2022-07-17T11:15:07;25.80;44.80
38380;DHT22;38377;47.418;18.882;2022-07-17T11:17:33;25.70;44.70
38380;DHT22;38377;47.418;18.882;2022-07-17T11:20:01;25.70;44.10
38380;DHT22;38377;47.418;18.882;2022-07-17T11:22:28;25.50;44.80
38380;DHT22;38377;47.418;18.882;2022-07-17T11:24:53;25.80;45.90
38380;DHT22;38377;47.418;18.882;2022-07-17T11:27:24;26.10;44.00
38380;DHT22;38377;47.418;18.882;2022-07-17T11:29:51;25.90;45.40
38380;DHT22;38377;47.418;18.882;2022-07-17T11:32:18;26.00;45.30
38380;DHT22;38377;47.418;18.882;2022-07-17T11:34:43;26.30;45.50
38380;DHT22;38377;47.418;18.882;2022-07-17T11:37:14;26.40;42.50
38380;DHT22;38377;47.418;18.882;2022-07-17T11:39:45;26.20;42.40
38380;DHT22;38377;47.418;18.882;2022-07-17T11:42:18;26.30;42.90
38380;DHT22;38377;47.418;18.882;2022-07-17T11:44:48;26.20;43.50
38380;DHT22;38377;47.418;18.882;2022-07-17T11:47:22;26.20;41.90
38380;DHT22;38377;47.418;18.882;2022-07-17T11:49:48;26.00;41.60
38380;DHT22;38377;47.418;18.882;2022-07-17T11:52:19;26.00;42.20
38380;DHT22;38377;47.418;18.882;2022-07-17T11:54:46;26.10;41.90
38380;DHT22;38377;47.418;18.882;2022-07-17T11:57:12;26.30;41.60
38380;DHT22;38377;47.418;18.882;2022-07-17T11:59:38;26.00;42.10
38380;DHT22;38377;47.418;18.882;2022-07-17T12:02:28;25.90;43.60
38380;DHT22;38377;47.418;18.882;2022-07-17T12:04:56;26.00;43.40
38380;DHT22;38377;47.418;18.882;2022-07-17T12:07:37;26.20;42.50
38380;DHT22;38377;47.418;18.882;2022-07-17T12:10:15;26.60;43.20
38380;DHT22;38377;47.418;18.882;2022-07-17T12:12:52;26.60;41.80
38380;DHT22;38377;47.418;18.882;2022-07-17T12:15:18;26.80;41.30
38380;DHT22;38377;47.418;18.882;2022-07-17T12:17:43;26.50;41.10
38380;DHT22;38377;47.418;18.882;2022-07-17T12:20:09;26.60;41.80
38380;DHT22;38377;47.418;18.882;2022-07-17T12:23:02;26.90;42.10
38380;DHT22;38377;47.418;18.882;2022-07-17T12:25:28;26.70;42.30
38380;DHT22;38377;47.418;18.882;2022-07-17T12:27:54;26.80;40.60
38380;DHT22;38377;47.418;18.882;2022-07-17T12:30:20;26.70;40.60
38380;DHT22;38377;47.418;18.882;2022-07-17T12:32:46;26.70;42.00
38380;DHT22;38377;47.418;18.882;2022-07-17T12:35:15;26.60;42.70
38380;DHT22;38377;47.418;18.882;2022-07-17T12:37:41;26.70;41.00
38380;DHT22;38377;47.418;18.882;2022-07-17T12:40:08;26.50;40.30
38380;DHT22;38377;47.418;18.882;2022-07-17T12:42:34;26.70;43.00
38380;DHT22;38377;47.418;18.882;2022-07-17T12:44:59;27.10;41.80
38380;DHT22;38377;47.418;18.882;2022-07-17T12:47:25;27.20;40.80
38380;DHT22;38377;47.418;18.882;2022-07-17T12:49:51;26.70;41.60
38380;DHT22;38377;47.418;18.882;2022-07-17T12:52:16;26.50;41.10
38380;DHT22;38377;47.418;18.882;2022-07-17T12:54:42;26.40;42.60
38380;DHT22;38377;47.418;18.882;2022-07-17T12:57:08;26.40;41.80
38380;DHT22;38377;47.418;18.882;2022-07-17T12:59:34;26.50;42.00
38380;DHT22;38377;47.418;18.882;2022-07-17T13:01:59;26.60;40.80
38380;DHT22;38377;47.418;18.882;2022-07-17T13:04:26;26.80;43.40
38380;DHT22;38377;47.418;18.882;2022-07-17T13:06:52;27.20;41.80
38380;DHT22;38377;47.418;18.882;2022-07-17T13:09:19;27.40;42.30
38380;DHT22;38377;47.418;18.882;2022-07-17T13:11:45;27.40;42.00
38380;DHT22;38377;47.418;18.882;2022-07-17T13:14:11;27.40;39.40
38380;DHT22;38377;47.418;18.882;2022-07-17T13:16:40;27.30;39.70
38380;DHT22;38377;47.418;18.882;2022-07-17T13:19:07;27.40;40.50
38380;DHT22;38377;47.418;18.882;2022-07-17T13:21:33;27.40;39.80
38380;DHT22;38377;47.418;18.882;2022-07-17T13:24:00;27.20;40.30
38380;DHT22;38377;47.418;18.882;2022-07-17T13:26:25;26.90;39.30
38380;DHT22;38377;47.418;18.882;2022-07-17T13:28:51;26.80;39.60
38380;DHT22;38377;47.418;18.882;2022-07-17T13:31:17;26.80;40.90
38380;DHT22;38377;47.418;18.882;2022-07-17T13:33:43;26.90;40.70
38380;DHT22;38377;47.418;18.882;2022-07-17T13:36:08;26.60;41.80
38380;DHT22;38377;47.418;18.882;2022-07-17T13:38:34;26.70;42.80
38380;DHT22;38377;47.418;18.882;2022-07-17T13:41:00;26.80;41.60
38380;DHT22;38377;47.418;18.882;2022-07-17T13:43:26;26.90;40.90
38380;DHT22;38377;47.418;18.882;2022-07-17T13:45:52;27.00;40.40
38380;DHT22;38377;47.418;18.882;2022-07-17T13:48:18;27.00;40.70
38380;DHT22;38377;47.418;18.882;2022-07-17T13:50:43;27.10;39.80
38380;DHT22;38377;47.418;18.882;2022-07-17T13:53:10;26.90;39.20
38380;DHT22;38377;47.418;18.882;2022-07-17T13:55:37;26.80;40.40
38380;DHT22;38377;47.418;18.882;2022-07-17T13:58:04;27.00;39.90
38380;DHT22;38377;47.418;18.882;2022-07-17T14:00:29;27.00;40.40
38380;DHT22;38377;47.418;18.882;2022-07-17T14:02:56;27.20;41.20
38380;DHT22;38377;47.418;18.882;2022-07-17T14:05:21;27.40;40.00
38380;DHT22;38377;47.418;18.882;2022-07-17T14:07:47;27.10;39.70
38380;DHT22;38377;47.418;18.882;2022-07-17T14:10:13;27.10;40.00
38380;DHT22;38377;47.418;18.882;2022-07-17T14:12:39;27.30;41.00
38380;DHT22;38377;47.418;18.882;2022-07-17T14:15:05;27.10;41.00
38380;DHT22;38377;47.418;18.882;2022-07-17T14:17:36;27.10;41.70
38380;DHT22;38377;47.418;18.882;2022-07-17T14:20:02;27.30;39.70
38380;DHT22;38377;47.418;18.882;2022-07-17T14:22:28;27.10;39.60
38380;DHT22;38377;47.418;18.882;2022-07-17T14:24:54;26.90;40.20
38380;DHT22;38377;47.418;18.882;2022-07-17T14:27:20;26.60;40.70
38380;DHT22;38377;47.418;18.882;2022-07-17T14:29:47;26.60;38.70
38380;DHT22;38377;47.418;18.882;2022-07-17T14:32:13;26.70;40.70
38380;DHT22;38377;47.418;18.882;2022-07-17T14:34:39;26.90;40.10
38380;DHT22;38377;47.418;18.882;2022-07-17T14:37:05;27.00;40.70
38380;DHT22;38377;47.418;18.882;2022-07-17T14:39:33;27.00;39.40
38380;DHT22;38377;47.418;18.882;2022-07-17T14:41:59;26.90;39.30
38380;DHT22;38377;47.418;18.882;2022-07-17T14:44:25;26.80;40.20
38380;DHT22;38377;47.418;18.882;2022-07-17T14:46:53;27.00;40.10
38380;DHT22;38377;47.418;18.882;2022-07-17T14:49:19;27.00;38.60
38380;DHT22;38377;47.418;18.882;2022-07-17T14:51:44;26.80;39.30
38380;DHT22;38377;47.418;18.882;2022-07-17T14:54:10;26.90;40.00
38380;DHT22;38377;47.418;18.882;2022-07-17T14:56:36;27.00;39.40
38380;DHT22;38377;47.418;18.882;2022-07-17T14:59:02;27.10;39.00
38380;DHT22;38377;47.418;18.882;2022-07-17T15:01:28;27.00;39.00
38380;DHT22;38377;47.418;18.882;2022-07-17T15:03:53;26.70;39.70
38380;DHT22;38377;47.418;18.882;2022-07-17T15:06:19;26.70;39.80
38380;DHT22;38377;47.418;18.882;2022-07-17T15:08:45;26.80;40.20
38380;DHT22;38377;47.418;18.882;2022-07-17T15:11:11;26.90;39.50
38380;DHT22;38377;47.418;18.882;2022-07-17T15:13:37;26.90;39.70
38380;DHT22;38377;47.418;18.882;2022-07-17T15:16:04;26.90;39.80
38380;DHT22;38377;47.418;18.882;2022-07-17T15:18:29;26.90;39.70
38380;DHT22;38377;47.418;18.882;2022-07-17T15:20:55;27.00;38.70
38380;DHT22;38377;47.418;18.882;2022-07-17T15:23:21;26.90;39.20
38380;DHT22;38377;47.418;18.882;2022-07-17T15:25:47;27.00;38.00
38380;DHT22;38377;47.418;18.882;2022-07-17T15:28:12;26.90;38.20
38380;DHT22;38377;47.418;18.882;2022-07-17T15:30:38;26.90;38.50
38380;DHT22;38377;47.418;18.882;2022-07-17T15:33:04;26.60;38.20